Time;durP1;ratioP1;P1;durP2;ratioP2;P2;SDS_P1;SDS_P2;PMS_P1;PMS_P2;Temp;Humidity;BMP_temperature;BMP_pressure;BME280_temperature;BME280_humidity;BME280_pressure;Samples;Min_cycle;Max_cycle;Signal;HPM_P1;HPM_P2
2023/12/30 00:01:25;;;;;;;2.57;1.20;;;10.90;99.40;;;;;;5020918;28;20559;-88
2023/12/30 00:03:52;;;;;;;4.63;1.10;;;11.00;99.60;;;;;;5025124;28;20447;-87
2023/12/30 00:06:39;;;;;;;3.27;1.27;;;11.00;99.50;;;;;;5023876;28;20476;-85
2023/12/30 00:09:08;;;;;;;4.97;1.17;;;11.00;99.60;;;;;;5009589;28;20471;-87
2023/12/30 00:11:50;;;;;;;1.53;0.87;;;11.00;99.70;;;;;;5004546;28;20453;-86
2023/12/30 00:14:26;;;;;;;2.80;0.97;;;11.10;99.50;;;;;;5016766;28;20480;-84
2023/12/30 00:16:58;;;;;;;2.97;1.37;;;11.20;99.60;;;;;;5005372;28;20460;-86
2023/12/30 00:19:33;;;;;;;6.17;1.50;;;11.00;99.40;;;;;;4996888;28;20745;-86
2023/12/30 00:22:03;;;;;;;7.40;1.53;;;10.90;99.70;;;;;;5022397;28;20486;-85
2023/12/30 00:24:33;;;;;;;3.20;1.17;;;10.90;99.80;;;;;;5019942;28;20448;-87
2023/12/30 00:27:00;;;;;;;4.50;1.87;;;11.10;99.90;;;;;;5002674;28;20541;-85
2023/12/30 00:29:27;;;;;;;2.40;1.00;;;11.20;99.50;;;;;;5020796;28;20458;-83
2023/12/30 00:31:55;;;;;;;3.83;1.80;;;11.00;99.60;;;;;;5003019;28;20500;-85
2023/12/30 00:34:23;;;;;;;2.63;1.40;;;11.40;99.50;;;;;;5011971;28;20452;-84
2023/12/30 00:36:50;;;;;;;3.87;1.40;;;11.30;99.10;;;;;;5034404;28;20492;-84
2023/12/30 00:39:16;;;;;;;5.00;1.47;;;11.40;99.20;;;;;;5022392;28;20452;-85
2023/12/30 00:41:45;;;;;;;5.47;1.60;;;11.20;99.20;;;;;;5039502;28;20487;-85
2023/12/30 00:44:13;;;;;;;4.10;1.40;;;11.00;99.40;;;;;;5014794;28;20485;-84
2023/12/30 00:46:43;;;;;;;4.10;1.30;;;11.00;99.70;;;;;;5015711;28;20522;-87
2023/12/30 00:49:17;;;;;;;4.73;1.47;;;10.90;99.80;;;;;;5011795;28;20541;-86
2023/12/30 00:51:50;;;;;;;5.20;1.60;;;11.10;99.80;;;;;;5017639;28;20466;-84
2023/12/30 00:54:18;;;;;;;6.57;1.43;;;11.10;99.80;;;;;;5008502;28;20461;-86
2023/12/30 00:56:53;;;;;;;8.73;1.87;;;11.00;99.70;;;;;;5019875;28;20476;-86
2023/12/30 00:59:24;;;;;;;7.80;4.20;;;11.00;99.50;;;;;;5014666;28;20556;-84
2023/12/30 01:01:55;;;;;;;4.23;1.20;;;10.90;99.70;;;;;;5005882;28;20524;-87
2023/12/30 01:04:26;;;;;;;5.30;1.73;;;11.10;99.70;;;;;;5021972;28;20482;-84
2023/12/30 01:06:55;;;;;;;3.10;1.53;;;11.00;99.50;;;;;;5006067;28;20477;-84
2023/12/30 01:09:22;;;;;;;6.03;1.80;;;11.00;99.60;;;;;;5007548;28;20458;-87
2023/12/30 01:11:49;;;;;;;5.10;1.50;;;11.00;99.60;;;;;;5019159;28;20445;-88
2023/12/30 01:14:18;;;;;;;6.93;1.30;;;11.00;99.70;;;;;;5043167;28;20453;-86
2023/12/30 01:16:47;;;;;;;6.50;1.60;;;11.00;99.70;;;;;;5045477;28;20493;-85
2023/12/30 01:19:17;;;;;;;8.70;2.00;;;11.00;99.80;;;;;;5046365;28;20477;-86
2023/12/30 01:21:43;;;;;;;2.50;1.23;;;11.10;99.80;;;;;;5037455;28;20512;-85
2023/12/30 01:24:12;;;;;;;5.17;1.30;;;11.10;99.70;;;;;;5009575;28;20458;-86
2023/12/30 01:26:42;;;;;;;9.07;3.00;;;11.20;99.80;;;;;;5025935;28;20477;-86
2023/12/30 01:29:11;;;;;;;8.80;2.47;;;11.20;99.50;;;;;;5008428;28;20452;-85
2023/12/30 01:31:40;;;;;;;5.43;1.40;;;11.10;99.60;;;;;;5026396;28;20451;-86
2023/12/30 01:34:08;;;;;;;4.00;1.40;;;11.10;99.70;;;;;;5021208;28;20454;-86
2023/12/30 01:36:35;;;;;;;5.13;1.70;;;11.40;99.40;;;;;;5016706;28;20477;-88
2023/12/30 01:39:13;;;;;;;4.60;1.30;;;11.20;99.20;;;;;;5020846;28;20461;-88
2023/12/30 01:41:42;;;;;;;4.97;1.63;;;11.10;99.50;;;;;;5008491;28;20491;-88
2023/12/30 01:44:09;;;;;;;4.90;1.73;;;11.20;99.40;;;;;;4997454;28;20457;-86
2023/12/30 01:46:36;;;;;;;5.17;1.30;;;11.10;99.40;;;;;;5018958;28;20564;-85
2023/12/30 01:49:08;;;;;;;12.63;2.30;;;11.10;99.60;;;;;;4998101;28;20595;-86
2023/12/30 01:51:37;;;;;;;4.80;1.50;;;11.00;99.50;;;;;;5015710;28;20451;-87
2023/12/30 01:54:05;;;;;;;2.70;1.27;;;11.00;99.50;;;;;;4995912;28;20582;-86
2023/12/30 01:56:34;;;;;;;4.33;1.30;;;10.90;99.60;;;;;;5011883;28;20510;-85
2023/12/30 01:59:01;;;;;;;3.90;1.80;;;10.90;99.50;;;;;;5020457;28;20441;-86
2023/12/30 02:01:31;;;;;;;6.00;1.80;;;10.90;99.60;;;;;;5020162;28;20493;-86
2023/12/30 02:03:58;;;;;;;5.00;2.07;;;11.00;99.60;;;;;;5028723;28;20499;-89
2023/12/30 02:06:25;;;;;;;5.17;1.90;;;11.00;99.70;;;;;;5028765;28;20488;-86
2023/12/30 02:08:52;;;;;;;5.20;1.60;;;11.00;99.70;;;;;;5022129;28;20984;-86
2023/12/30 02:11:20;;;;;;;4.20;1.97;;;11.00;99.80;;;;;;5016998;28;20450;-87
2023/12/30 02:13:49;;;;;;;6.37;1.50;;;11.00;99.90;;;;;;5022190;28;20469;-87
2023/12/30 02:16:18;;;;;;;3.33;1.70;;;11.00;99.90;;;;;;5021896;28;20485;-87
2023/12/30 02:18:48;;;;;;;7.10;1.30;;;11.10;99.90;;;;;;5023988;28;20457;-86
2023/12/30 02:21:26;;;;;;;12.30;1.40;;;11.10;99.90;;;;;;5011337;28;20458;-88
2023/12/30 02:23:55;;;;;;;4.87;1.77;;;11.20;99.90;;;;;;5034379;28;20450;-85
2023/12/30 02:26:25;;;;;;;3.73;1.50;;;11.20;99.70;;;;;;5010575;28;20477;-86
2023/12/30 02:28:57;;;;;;;8.43;1.37;;;11.20;99.50;;;;;;5028074;28;20465;-87
2023/12/30 02:31:24;;;;;;;4.97;1.80;;;11.10;99.40;;;;;;5026402;28;20511;-85
2023/12/30 02:33:53;;;;;;;4.40;1.17;;;11.10;99.40;;;;;;5030101;28;20518;-87
2023/12/30 02:36:23;;;;;;;7.07;1.53;;;11.10;99.30;;;;;;5028341;28;20469;-84
2023/12/30 02:38:52;;;;;;;7.23;1.73;;;11.10;99.20;;;;;;5012295;28;20437;-86
2023/12/30 02:41:19;;;;;;;3.73;1.30;;;11.00;99.10;;;;;;5028392;28;21289;-86
2023/12/30 02:44:00;;;;;;;7.70;1.67;;;11.00;99.10;;;;;;5013303;28;20909;-85
2023/12/30 02:46:27;;;;;;;5.83;1.30;;;11.00;99.10;;;;;;5007333;28;21782;-85
2023/12/30 02:49:03;;;;;;;8.87;1.87;;;11.10;99.10;;;;;;5018552;28;20466;-88
2023/12/30 02:51:38;;;;;;;3.60;1.33;;;11.00;98.90;;;;;;5007895;28;20516;-85
2023/12/30 02:54:07;;;;;;;2.40;1.23;;;11.00;99.00;;;;;;5016631;28;21634;-86
2023/12/30 02:56:37;;;;;;;5.83;1.53;;;11.00;99.00;;;;;;4998283;28;20477;-84
2023/12/30 02:59:06;;;;;;;1.90;1.33;;;11.10;99.00;;;;;;5006892;28;21345;-86
2023/12/30 03:01:38;;;;;;;1.50;1.40;;;11.10;98.90;;;;;;5000820;28;20485;-87
2023/12/30 03:04:05;;;;;;;8.63;2.10;;;11.30;98.80;;;;;;5024706;28;20573;-87
2023/12/30 03:06:32;;;;;;;5.10;1.23;;;11.40;98.30;;;;;;5003704;28;20469;-87
2023/12/30 03:08:59;;;;;;;5.37;1.70;;;11.40;98.30;;;;;;5006149;28;20466;-85
2023/12/30 03:11:26;;;;;;;8.50;1.60;;;11.40;98.10;;;;;;5017751;28;20458;-85
2023/12/30 03:13:53;;;;;;;2.43;1.40;;;11.50;98.30;;;;;;5020619;28;20517;-85
2023/12/30 03:16:21;;;;;;;6.00;1.70;;;11.40;98.00;;;;;;5022122;28;20842;-86
2023/12/30 03:18:53;;;;;;;3.90;1.53;;;11.20;98.20;;;;;;5023500;28;20541;-87
2023/12/30 03:21:23;;;;;;;2.80;1.43;;;11.20;98.40;;;;;;5004011;28;20599;-86
2023/12/30 03:23:52;;;;;;;4.50;1.90;;;11.10;98.50;;;;;;5025226;28;20472;-86
2023/12/30 03:26:22;;;;;;;6.10;1.40;;;11.10;98.60;;;;;;5008518;28;21019;-86
2023/12/30 03:28:52;;;;;;;7.90;1.30;;;11.00;98.70;;;;;;5013616;28;20541;-85
2023/12/30 03:31:21;;;;;;;6.03;1.87;;;11.00;98.80;;;;;;5012583;28;20532;-85
2023/12/30 03:33:51;;;;;;;2.80;1.50;;;11.20;98.80;;;;;;5028304;28;20457;-86
2023/12/30 03:36:20;;;;;;;5.03;2.10;;;11.20;98.60;;;;;;5012723;28;20509;-84
2023/12/30 03:38:48;;;;;;;4.27;1.53;;;11.10;98.60;;;;;;5021821;28;20438;-84
2023/12/30 03:41:16;;;;;;;5.53;1.57;;;11.20;98.60;;;;;;5019176;28;20470;-86
2023/12/30 03:43:43;;;;;;;4.67;1.20;;;11.10;98.60;;;;;;5020502;28;20461;-86
2023/12/30 03:46:10;;;;;;;2.60;1.40;;;11.10;98.70;;;;;;5017487;28;20554;-85
2023/12/30 03:48:42;;;;;;;4.03;1.40;;;11.00;98.80;;;;;;5016576;28;20463;-88
2023/12/30 03:51:09;;;;;;;3.60;2.10;;;11.00;99.10;;;;;;4999768;28;20450;-85
2023/12/30 03:53:38;;;;;;;7.33;1.53;;;11.00;99.40;;;;;;5017893;28;20474;-87
2023/12/30 03:56:09;;;;;;;3.73;1.50;;;10.90;99.20;;;;;;5013283;28;20478;-89
2023/12/30 03:58:36;;;;;;;3.60;1.37;;;10.90;99.40;;;;;;5017465;28;20501;-88
2023/12/30 04:01:03;;;;;;;7.23;1.97;;;10.90;99.50;;;;;;5017195;28;20618;-85
2023/12/30 04:03:30;;;;;;;5.73;1.57;;;10.90;99.70;;;;;;5020396;28;20799;-85
2023/12/30 04:06:00;;;;;;;6.57;1.70;;;10.90;99.90;;;;;;4999642;28;20547;-86
2023/12/30 04:08:29;;;;;;;4.53;1.43;;;10.90;99.90;;;;;;5021180;28;20551;-86
2023/12/30 04:10:57;;;;;;;4.40;1.30;;;11.00;99.90;;;;;;5018445;28;20443;-83
2023/12/30 04:13:25;;;;;;;3.13;1.17;;;11.00;99.90;;;;;;4998902;28;20474;-85
2023/12/30 04:15:52;;;;;;;5.83;1.63;;;11.40;99.70;;;;;;4995753;28;20489;-86
2023/12/30 04:18:19;;;;;;;9.43;2.20;;;11.70;99.00;;;;;;4999983;28;20451;-86
2023/12/30 04:20:47;;;;;;;7.80;1.40;;;11.40;98.70;;;;;;5016163;28;20462;-84
2023/12/30 04:23:14;;;;;;;6.07;1.33;;;11.60;98.80;;;;;;5011102;28;20648;-84
2023/12/30 04:25:40;;;;;;;6.10;1.40;;;11.40;98.50;;;;;;5010296;28;20476;-84
2023/12/30 04:28:10;;;;;;;1.63;1.07;;;11.30;98.60;;;;;;5012666;28;20482;-84
2023/12/30 04:30:39;;;;;;;3.73;1.30;;;11.20;98.70;;;;;;5009335;28;20459;-83
2023/12/30 04:33:06;;;;;;;3.87;1.53;;;11.30;98.50;;;;;;5011362;28;20450;-84
2023/12/30 04:35:34;;;;;;;4.70;1.37;;;11.20;98.60;;;;;;5007802;28;20542;-85
2023/12/30 04:38:01;;;;;;;5.43;1.30;;;11.30;98.70;;;;;;4991562;28;20462;-85
2023/12/30 04:40:29;;;;;;;5.50;1.63;;;11.40;98.40;;;;;;5005241;28;22205;-83
2023/12/30 04:43:03;;;;;;;8.73;1.73;;;11.10;98.40;;;;;;5008420;28;20544;-82
2023/12/30 04:45:32;;;;;;;5.37;1.50;;;11.00;98.70;;;;;;5007429;28;20503;-85
2023/12/30 04:47:59;;;;;;;4.27;1.47;;;11.00;98.90;;;;;;5011392;28;20451;-84
2023/12/30 04:50:34;;;;;;;7.00;1.63;;;11.00;99.10;;;;;;4989467;28;20538;-85
2023/12/30 04:53:09;;;;;;;4.03;1.53;;;11.00;99.30;;;;;;4990146;28;20546;-84
2023/12/30 04:55:37;;;;;;;7.93;2.20;;;10.90;99.20;;;;;;4995690;28;20482;-85
2023/12/30 04:58:07;;;;;;;3.30;1.40;;;11.10;99.10;;;;;;5008860;28;20450;-85
2023/12/30 05:00:34;;;;;;;6.40;2.30;;;11.00;99.10;;;;;;5010951;28;21127;-83
2023/12/30 05:03:06;;;;;;;1.63;1.10;;;10.90;99.20;;;;;;5009970;28;20491;-84
2023/12/30 05:05:38;;;;;;;4.03;1.40;;;10.90;99.20;;;;;;4993145;28;21130;-85
2023/12/30 05:08:07;;;;;;;3.23;1.97;;;10.90;99.30;;;;;;4992711;28;20547;-81
2023/12/30 05:10:36;;;;;;;7.00;2.00;;;10.90;99.50;;;;;;5017706;28;20451;-86
2023/12/30 05:13:04;;;;;;;3.80;1.53;;;11.00;99.20;;;;;;4997296;28;20454;-83
2023/12/30 05:15:36;;;;;;;4.20;1.77;;;11.00;99.10;;;;;;4990112;28;22150;-84
2023/12/30 05:18:04;;;;;;;4.70;1.63;;;10.90;99.10;;;;;;4999364;28;20458;-83
2023/12/30 05:20:31;;;;;;;3.60;1.63;;;10.80;99.40;;;;;;5003749;28;20456;-84
2023/12/30 05:23:01;;;;;;;6.83;1.60;;;10.70;99.60;;;;;;5005738;28;20528;-84
2023/12/30 05:25:28;;;;;;;5.40;1.70;;;10.80;99.80;;;;;;5005068;28;20486;-84
2023/12/30 05:27:58;;;;;;;8.17;1.60;;;10.60;99.80;;;;;;4987310;28;20523;-83
2023/12/30 05:30:25;;;;;;;5.90;1.20;;;10.50;99.90;;;;;;4989758;28;20469;-85
2023/12/30 05:32:57;;;;;;;5.40;1.60;;;10.60;99.90;;;;;;4990433;28;20462;-86
2023/12/30 05:35:26;;;;;;;5.60;1.43;;;10.50;99.90;;;;;;4990295;28;20485;-84
2023/12/30 05:37:56;;;;;;;7.30;1.67;;;10.60;99.90;;;;;;5002634;28;20537;-84
2023/12/30 05:40:23;;;;;;;4.50;1.43;;;10.60;99.90;;;;;;5006226;28;21010;-84
2023/12/30 05:42:50;;;;;;;5.17;1.67;;;10.70;99.90;;;;;;5006720;28;20643;-84
2023/12/30 05:45:22;;;;;;;7.53;1.60;;;10.70;99.90;;;;;;4997573;28;20489;-84
2023/12/30 05:47:49;;;;;;;5.30;2.17;;;10.80;99.90;;;;;;5006539;28;20487;-83
2023/12/30 05:50:22;;;;;;;7.80;2.33;;;10.90;99.90;;;;;;4994853;28;20615;-84
2023/12/30 05:52:56;;;;;;;8.23;1.70;;;10.90;99.90;;;;;;5008687;28;20465;-83
2023/12/30 05:55:25;;;;;;;7.50;1.73;;;11.00;99.90;;;;;;4996184;28;20544;-84
2023/12/30 05:57:53;;;;;;;2.77;1.10;;;10.90;99.60;;;;;;5005307;28;20553;-83
2023/12/30 06:00:28;;;;;;;5.47;1.80;;;10.90;99.80;;;;;;4985395;28;20659;-83
2023/12/30 06:02:56;;;;;;;8.00;1.73;;;11.10;99.40;;;;;;5004278;28;20477;-83
2023/12/30 06:13:10;;;;;;;4.73;1.50;;;11.20;99.10;;;;;;4987201;28;20454;-85
2023/12/30 06:15:37;;;;;;;3.97;1.67;;;11.40;98.90;;;;;;5001696;28;20479;-85
2023/12/30 06:18:04;;;;;;;6.50;1.90;;;11.30;98.80;;;;;;5019203;28;20565;-83
2023/12/30 06:20:31;;;;;;;5.33;1.40;;;11.20;98.80;;;;;;5014080;28;20840;-84
2023/12/30 06:23:01;;;;;;;5.40;1.60;;;11.30;98.80;;;;;;5014117;28;20565;-85
2023/12/30 06:25:28;;;;;;;5.50;1.97;;;11.20;98.80;;;;;;5003036;28;20481;-86
2023/12/30 06:27:56;;;;;;;9.83;1.80;;;11.00;99.00;;;;;;5011032;28;20492;-85
2023/12/30 06:30:25;;;;;;;4.03;1.10;;;11.10;99.20;;;;;;5009779;28;20462;-87
2023/12/30 06:32:54;;;;;;;5.13;1.50;;;11.30;99.00;;;;;;4995051;28;20625;-84
2023/12/30 06:35:23;;;;;;;6.37;2.80;;;11.20;98.70;;;;;;4993937;28;21185;-86
2023/12/30 06:37:51;;;;;;;3.97;1.77;;;10.90;99.00;;;;;;4996629;28;20467;-85
2023/12/30 06:40:19;;;;;;;6.17;2.03;;;10.90;99.40;;;;;;5011229;28;20536;-86
2023/12/30 06:42:50;;;;;;;3.60;1.30;;;11.00;99.50;;;;;;5014085;28;20504;-85
2023/12/30 06:45:23;;;;;;;4.00;1.30;;;11.10;99.50;;;;;;4992898;28;20470;-84
2023/12/30 06:47:52;;;;;;;4.93;1.50;;;11.00;99.40;;;;;;5009619;28;20489;-86
2023/12/30 06:50:27;;;;;;;7.10;1.40;;;10.80;99.40;;;;;;4999329;28;20469;-86
2023/12/30 06:53:02;;;;;;;4.90;1.30;;;10.80;99.60;;;;;;4992702;28;20476;-84
2023/12/30 06:55:32;;;;;;;6.03;1.97;;;11.10;99.60;;;;;;5005830;28;20491;-86
2023/12/30 06:58:08;;;;;;;3.97;1.50;;;11.00;99.40;;;;;;5010050;28;20446;-86
2023/12/30 07:00:35;;;;;;;6.97;1.70;;;11.20;99.20;;;;;;5004079;28;20884;-86
2023/12/30 07:03:05;;;;;;;6.80;1.60;;;11.20;98.90;;;;;;4988348;28;20532;-85
2023/12/30 07:05:37;;;;;;;4.40;1.43;;;11.00;99.00;;;;;;5009242;28;20474;-86
2023/12/30 07:08:11;;;;;;;4.83;1.30;;;10.90;99.30;;;;;;5001967;28;20473;-85
2023/12/30 07:10:39;;;;;;;6.37;1.70;;;11.20;99.30;;;;;;4987645;28;20722;-84
2023/12/30 07:13:09;;;;;;;16.50;2.63;;;11.30;98.80;;;;;;5017668;28;20499;-86
2023/12/30 07:15:38;;;;;;;4.83;1.67;;;11.10;98.80;;;;;;5026184;28;20474;-86
2023/12/30 07:18:08;;;;;;;6.50;1.63;;;11.00;99.00;;;;;;5023849;28;20466;-85
2023/12/30 07:20:39;;;;;;;2.60;1.13;;;10.90;99.20;;;;;;5015470;28;20458;-85
2023/12/30 07:23:07;;;;;;;2.97;1.10;;;10.80;99.40;;;;;;4992764;28;20486;-84
2023/12/30 07:25:34;;;;;;;3.47;1.93;;;10.80;99.50;;;;;;5010982;28;21124;-86
2023/12/30 07:28:02;;;;;;;3.80;1.60;;;10.70;99.50;;;;;;5009130;28;20542;-84
2023/12/30 07:30:32;;;;;;;4.43;1.60;;;10.90;99.60;;;;;;5004096;28;20459;-86
2023/12/30 07:33:02;;;;;;;7.27;1.70;;;10.80;99.50;;;;;;4988347;28;20498;-85
2023/12/30 07:35:33;;;;;;;7.27;1.97;;;11.10;99.40;;;;;;4986970;28;20471;-84
2023/12/30 07:38:02;;;;;;;4.20;2.40;;;11.00;99.10;;;;;;5007916;28;20941;-84
2023/12/30 07:40:28;;;;;;;2.60;1.40;;;11.00;98.90;;;;;;5021220;28;20447;-84
2023/12/30 07:42:55;;;;;;;4.40;1.50;;;10.80;99.10;;;;;;5031199;28;20487;-85
2023/12/30 07:45:23;;;;;;;2.53;1.30;;;10.80;99.30;;;;;;5021012;28;20541;-85
2023/12/30 07:47:50;;;;;;;3.37;1.30;;;11.00;99.30;;;;;;5042710;28;20446;-85
2023/12/30 07:50:21;;;;;;;3.50;0.87;;;10.90;99.10;;;;;;5026633;28;20457;-84
2023/12/30 07:52:48;;;;;;;4.23;1.30;;;10.80;99.10;;;;;;5032783;28;20583;-85
2023/12/30 07:55:18;;;;;;;4.40;1.33;;;10.60;99.20;;;;;;5022223;28;20492;-85
2023/12/30 07:57:44;;;;;;;2.97;1.27;;;10.70;99.30;;;;;;5020599;28;20457;-85
2023/12/30 08:00:15;;;;;;;4.50;1.97;;;10.70;99.40;;;;;;5008507;28;20522;-86
2023/12/30 08:02:47;;;;;;;5.60;1.20;;;10.80;99.40;;;;;;5021727;28;20541;-85
2023/12/30 08:05:18;;;;;;;5.43;2.40;;;10.80;99.30;;;;;;4998018;28;20469;-86
2023/12/30 08:07:48;;;;;;;3.67;1.87;;;10.70;99.20;;;;;;5013230;28;20469;-86
2023/12/30 08:10:18;;;;;;;5.57;1.40;;;10.70;99.30;;;;;;4994629;28;20458;-86
2023/12/30 08:12:45;;;;;;;3.27;1.30;;;10.70;99.30;;;;;;5009304;28;20458;-85
2023/12/30 08:15:13;;;;;;;5.43;1.50;;;10.70;99.30;;;;;;5030633;28;20477;-87
2023/12/30 08:17:41;;;;;;;7.43;1.73;;;10.70;99.30;;;;;;4997605;28;20485;-85
2023/12/30 08:20:09;;;;;;;4.33;1.30;;;11.00;99.30;;;;;;4998994;28;20501;-85
2023/12/30 08:22:39;;;;;;;4.00;1.47;;;11.00;98.90;;;;;;5001558;28;20529;-87
2023/12/30 08:25:07;;;;;;;5.13;2.20;;;10.90;98.90;;;;;;5005405;28;20591;-85
2023/12/30 08:27:36;;;;;;;4.63;1.30;;;10.90;99.10;;;;;;5011298;28;20500;-87
2023/12/30 08:30:04;;;;;;;6.93;1.37;;;11.00;99.10;;;;;;5005754;28;20443;-86
2023/12/30 08:32:31;;;;;;;3.83;1.07;;;10.90;98.90;;;;;;5018528;28;20430;-86
2023/12/30 08:34:58;;;;;;;4.27;1.60;;;10.80;99.10;;;;;;5028584;28;20545;-86
2023/12/30 08:37:24;;;;;;;5.50;1.40;;;10.80;99.30;;;;;;5026634;28;20469;-86
2023/12/30 08:39:54;;;;;;;3.40;1.23;;;10.70;99.40;;;;;;5018142;28;20537;-87
2023/12/30 08:42:24;;;;;;;3.63;1.40;;;10.80;99.50;;;;;;5011140;28;20514;-86
2023/12/30 08:44:58;;;;;;;5.47;1.23;;;10.80;99.60;;;;;;5005898;28;20469;-85
2023/12/30 08:47:31;;;;;;;3.97;1.63;;;10.80;99.60;;;;;;4996171;28;20443;-86
2023/12/30 08:50:12;;;;;;;4.50;1.27;;;10.90;99.60;;;;;;5015271;28;20462;-87
2023/12/30 08:52:46;;;;;;;3.70;2.17;;;11.00;99.50;;;;;;5010882;28;20900;-84
2023/12/30 08:55:16;;;;;;;3.97;2.10;;;10.90;99.40;;;;;;5013012;28;20557;-86
2023/12/30 08:57:43;;;;;;;7.07;2.20;;;10.90;99.40;;;;;;5013271;28;20473;-85
2023/12/30 09:00:12;;;;;;;4.70;1.47;;;10.90;99.40;;;;;;4995220;28;20464;-84
2023/12/30 09:02:48;;;;;;;4.47;2.60;;;10.80;99.30;;;;;;5011476;28;20513;-85
2023/12/30 09:05:27;;;;;;;4.50;1.73;;;10.90;99.30;;;;;;5009879;28;20557;-84
2023/12/30 09:08:02;;;;;;;8.07;1.60;;;11.10;99.10;;;;;;5010003;28;20512;-85
2023/12/30 09:10:39;;;;;;;6.70;1.93;;;11.30;98.40;;;;;;5008105;28;20439;-84
2023/12/30 09:13:09;;;;;;;8.60;2.17;;;11.10;98.40;;;;;;4998815;28;20539;-87
2023/12/30 09:15:43;;;;;;;5.80;1.80;;;11.10;98.60;;;;;;5000675;28;20522;-85
2023/12/30 09:18:13;;;;;;;5.00;1.80;;;11.30;98.40;;;;;;5018423;28;20462;-86
2023/12/30 09:20:43;;;;;;;7.63;2.60;;;11.20;98.10;;;;;;5008204;28;20497;-85
2023/12/30 09:23:17;;;;;;;3.03;1.67;;;11.00;98.30;;;;;;4997582;28;20494;-85
2023/12/30 09:25:44;;;;;;;5.30;2.23;;;11.10;98.40;;;;;;5010218;28;20939;-86
2023/12/30 09:28:11;;;;;;;5.50;2.00;;;11.10;98.40;;;;;;5010586;28;20504;-86
2023/12/30 09:30:39;;;;;;;5.20;1.63;;;11.30;98.30;;;;;;4993614;28;20447;-87
2023/12/30 09:33:12;;;;;;;1.87;1.13;;;11.70;97.60;;;;;;5013158;28;20465;-86
2023/12/30 09:35:40;;;;;;;5.73;1.80;;;11.70;97.10;;;;;;5010564;28;20486;-85
2023/12/30 09:38:12;;;;;;;5.03;1.37;;;11.60;97.00;;;;;;5014732;28;20642;-88
2023/12/30 09:40:42;;;;;;;3.27;1.33;;;11.60;97.20;;;;;;5010920;28;20545;-87
2023/12/30 09:43:11;;;;;;;6.67;1.40;;;11.70;96.70;;;;;;5018370;28;22363;-85
2023/12/30 09:45:41;;;;;;;5.50;1.80;;;11.60;96.70;;;;;;4992983;28;20532;-85
2023/12/30 09:48:14;;;;;;;4.80;1.70;;;11.60;97.00;;;;;;4993774;28;21189;-85
2023/12/30 09:50:42;;;;;;;5.40;1.50;;;11.80;96.70;;;;;;4994454;28;20472;-87
2023/12/30 09:53:14;;;;;;;6.50;2.13;;;11.70;96.60;;;;;;5010693;28;20501;-85
2023/12/30 09:55:48;;;;;;;3.73;2.00;;;11.60;96.30;;;;;;5010669;28;20480;-85
2023/12/30 09:58:15;;;;;;;9.33;2.27;;;11.60;96.30;;;;;;5018901;28;20819;-88
2023/12/30 10:00:45;;;;;;;4.63;1.40;;;11.50;96.50;;;;;;5013704;28;20470;-86
2023/12/30 10:03:15;;;;;;;6.33;1.77;;;11.40;96.70;;;;;;4997772;28;20478;-87
2023/12/30 10:05:44;;;;;;;5.50;1.30;;;11.40;96.70;;;;;;4998729;28;20488;-88
2023/12/30 10:08:11;;;;;;;8.07;2.00;;;11.30;96.70;;;;;;5002201;28;20454;-87
2023/12/30 10:10:46;;;;;;;6.90;1.57;;;11.30;96.80;;;;;;5006875;28;20459;-84
2023/12/30 10:13:17;;;;;;;9.00;1.90;;;11.80;96.50;;;;;;5009498;28;20466;-85
2023/12/30 10:15:52;;;;;;;4.27;1.43;;;11.90;96.30;;;;;;5003834;28;20459;-87
2023/12/30 10:18:24;;;;;;;2.00;1.27;;;11.80;96.00;;;;;;5002699;28;20457;-87
2023/12/30 10:20:52;;;;;;;8.70;1.90;;;11.60;96.20;;;;;;5017345;28;20454;-87
2023/12/30 10:23:18;;;;;;;4.70;2.17;;;11.60;96.40;;;;;;5007519;28;20461;-86
2023/12/30 10:25:46;;;;;;;5.40;1.30;;;11.60;96.30;;;;;;5013008;28;20482;-87
2023/12/30 10:28:13;;;;;;;3.10;1.40;;;11.50;96.40;;;;;;5006097;28;20458;-86
2023/12/30 10:30:40;;;;;;;7.40;2.00;;;11.60;96.40;;;;;;5016179;28;20771;-88
2023/12/30 10:33:12;;;;;;;2.93;1.37;;;11.60;96.40;;;;;;5004783;28;20461;-87
2023/12/30 10:35:41;;;;;;;7.40;2.33;;;11.80;96.30;;;;;;5007594;28;20488;-84
2023/12/30 10:38:09;;;;;;;9.40;1.90;;;12.20;95.80;;;;;;4999743;28;20454;-86
2023/12/30 10:40:39;;;;;;;3.77;1.30;;;12.40;95.40;;;;;;5016873;28;20446;-86
2023/12/30 10:43:07;;;;;;;4.93;1.73;;;12.50;95.10;;;;;;5018348;28;20681;-86
2023/12/30 10:45:37;;;;;;;4.93;2.30;;;12.40;95.30;;;;;;5022394;28;20505;-84
2023/12/30 10:48:06;;;;;;;3.33;1.30;;;12.40;95.00;;;;;;5018624;28;20465;-86
2023/12/30 10:50:37;;;;;;;4.87;1.57;;;12.40;95.00;;;;;;5021390;28;20508;-86
2023/12/30 10:53:13;;;;;;;3.70;1.50;;;12.20;95.00;;;;;;5002439;28;20462;-87
2023/12/30 10:55:50;;;;;;;4.93;1.90;;;12.60;94.80;;;;;;5001440;28;20509;-87
2023/12/30 10:58:19;;;;;;;8.00;1.90;;;12.80;94.20;;;;;;5009408;28;20462;-85
2023/12/30 11:01:02;;;;;;;4.37;1.37;;;12.70;94.10;;;;;;5018275;28;20511;-85
2023/12/30 11:03:40;;;;;;;3.30;1.50;;;12.80;93.90;;;;;;5020571;28;20496;-86
2023/12/30 11:06:12;;;;;;;4.40;1.63;;;12.80;93.90;;;;;;5005187;28;20492;-86
2023/12/30 11:08:43;;;;;;;4.60;1.60;;;12.80;93.90;;;;;;5012273;28;20529;-86
2023/12/30 11:11:14;;;;;;;7.07;1.90;;;12.80;94.00;;;;;;5027167;28;20478;-85
2023/12/30 11:13:42;;;;;;;5.57;1.40;;;12.80;94.40;;;;;;5010615;28;20453;-85
2023/12/30 11:16:17;;;;;;;4.50;1.60;;;12.90;93.70;;;;;;5031555;28;20474;-86
2023/12/30 11:18:53;;;;;;;4.73;1.47;;;12.60;93.70;;;;;;5010559;28;20447;-86
2023/12/30 11:21:43;;;;;;;3.60;1.37;;;12.90;93.50;;;;;;5027996;28;20450;-87
2023/12/30 11:24:18;;;;;;;5.40;2.00;;;12.90;93.40;;;;;;5029790;28;20481;-85
2023/12/30 11:26:49;;;;;;;4.20;1.63;;;12.60;93.80;;;;;;5015606;28;20544;-85
2023/12/30 11:29:29;;;;;;;5.33;1.77;;;12.80;93.70;;;;;;5020056;28;20449;-87
2023/12/30 11:32:04;;;;;;;4.80;1.80;;;12.60;93.80;;;;;;5022793;28;20444;-83
2023/12/30 11:34:38;;;;;;;6.90;1.37;;;12.80;93.70;;;;;;5019934;28;20565;-85
2023/12/30 11:37:12;;;;;;;3.67;1.30;;;13.00;93.20;;;;;;5009677;28;20458;-85
2023/12/30 11:39:51;;;;;;;8.90;1.23;;;12.90;93.20;;;;;;5031810;28;20468;-85
2023/12/30 11:42:21;;;;;;;4.80;1.30;;;13.10;92.80;;;;;;5032293;28;20462;-86
2023/12/30 11:45:04;;;;;;;4.13;1.50;;;13.10;92.90;;;;;;5012209;28;20505;-84
2023/12/30 11:47:35;;;;;;;2.97;1.57;;;13.00;93.20;;;;;;5014092;28;20458;-84
2023/12/30 11:50:09;;;;;;;6.87;1.50;;;13.00;93.20;;;;;;5029068;28;20485;-85
2023/12/30 11:52:49;;;;;;;4.00;1.40;;;12.80;93.40;;;;;;5021784;28;20508;-87
2023/12/30 11:55:19;;;;;;;5.53;1.33;;;13.20;92.80;;;;;;5032632;28;20537;-84
2023/12/30 11:57:52;;;;;;;3.67;1.70;;;13.00;92.80;;;;;;5013571;28;20447;-83
2023/12/30 12:00:26;;;;;;;4.73;1.23;;;12.80;93.30;;;;;;5021749;28;20497;-86
2023/12/30 12:03:03;;;;;;;0.93;0.73;;;13.00;93.30;;;;;;5014835;28;20484;-88
2023/12/30 12:05:36;;;;;;;3.20;1.53;;;13.30;92.80;;;;;;5038022;28;20509;-89
2023/12/30 12:08:08;;;;;;;4.63;1.17;;;13.10;92.60;;;;;;5035083;28;20453;-88
2023/12/30 12:10:37;;;;;;;4.20;1.50;;;13.20;92.90;;;;;;5031584;28;20547;-86
2023/12/30 12:13:09;;;;;;;4.87;1.30;;;13.10;92.60;;;;;;5015616;28;20463;-87
2023/12/30 12:15:39;;;;;;;4.90;1.60;;;13.10;92.90;;;;;;5033623;28;20568;-84
2023/12/30 12:18:11;;;;;;;2.37;1.07;;;13.10;92.60;;;;;;5024163;28;20442;-86
2023/12/30 12:20:38;;;;;;;2.50;1.00;;;13.10;92.60;;;;;;5026583;28;20458;-85
2023/12/30 12:23:14;;;;;;;4.60;1.47;;;13.50;92.30;;;;;;5038201;28;20434;-87
2023/12/30 12:25:48;;;;;;;1.40;1.00;;;13.50;91.90;;;;;;5030018;28;20478;-88
2023/12/30 12:28:23;;;;;;;5.73;1.50;;;13.20;92.20;;;;;;5012327;28;20542;-86
2023/12/30 12:31:03;;;;;;;4.93;1.73;;;13.30;92.20;;;;;;5034874;28;20457;-85
2023/12/30 12:33:34;;;;;;;1.43;1.10;;;13.40;92.00;;;;;;5017449;28;21085;-86
2023/12/30 12:36:08;;;;;;;1.77;1.10;;;13.20;92.10;;;;;;5032134;28;20484;-86
2023/12/30 12:38:57;;;;;;;3.17;1.10;;;13.40;92.00;;;;;;5016709;28;20476;-86
2023/12/30 12:41:35;;;;;;;6.03;2.97;;;13.20;91.90;;;;;;5013352;28;20538;-85
2023/12/30 12:44:05;;;;;;;5.03;1.50;;;13.30;92.30;;;;;;5022059;28;20481;-85
2023/12/30 12:46:43;;;;;;;2.67;1.20;;;13.50;92.20;;;;;;5018609;28;20549;-87
2023/12/30 12:49:19;;;;;;;1.90;0.90;;;13.60;91.50;;;;;;5006400;28;20466;-84
2023/12/30 12:51:51;;;;;;;4.93;1.20;;;13.60;91.50;;;;;;5004059;28;20458;-84
2023/12/30 12:54:34;;;;;;;4.00;1.20;;;13.50;91.60;;;;;;5007045;28;20650;-86
2023/12/30 12:57:23;;;;;;;4.83;1.10;;;13.20;92.00;;;;;;5009345;28;20469;-84
2023/12/30 13:00:01;;;;;;;3.87;1.43;;;13.30;91.60;;;;;;5019993;28;20470;-86
2023/12/30 13:02:32;;;;;;;4.10;1.67;;;12.90;91.80;;;;;;5018340;28;20981;-84
2023/12/30 13:05:02;;;;;;;6.93;1.60;;;12.80;92.20;;;;;;5022077;28;20776;-84
2023/12/30 13:07:29;;;;;;;5.17;1.60;;;12.70;92.30;;;;;;4974608;28;20446;-86
2023/12/30 13:12:53;;;;;;;4.73;1.20;;;12.60;92.70;;;;;;5021362;28;20453;-84